Disclaimer

Please do not use the information listed here in-flight or in-navigation, as they are not provided to us by the airports but are provided by volunteers, so they might be outdated.

Search


Regions


Airport information page

Radio informations:
WILSON TWR - 118.1 MHz

Airport informations:
Latitude: 01° 19' 18.19" S
Longitude: 036° 48' 53.40" E
Elevation: 5546 feet - 1690 meters
Operating hours: Remarks
Operating agency: Civil government, landing fees and diplomatic clearance may be required
Timezone: UTC+3
Fuel: Jet A1, without icing nhibitor.

Runway information:
07/25 - 4798 x 72 feet< - >1462 x 22 meters
14/32 - 5052 x 76 feet< - >1540 x 23 meters

Recent METARs:
HKNW 160300Z 00000KT 9999 SCT018 16/15 Q1023
HKNW 160300Z 00000KT 9999 SCT018 16/15 Q1023
HKNW 160400Z 00000KT 9999 FEW018 SCT080 16/15 Q1023

Airport on the map: